Terminal Aerodrome Forecast
Issued by NWS

Current Version | Previous Version | Graphics & Text | Print | Product List | Glossary On
Versions: 1 2 3 4 5 6 7 8 9 10 11 12 13 14 15 16 17 18 19 20 21 22 23 24 25 26 27
974
FTUS41 KILN 242335
TAFLUK
TAF
KLUK 242335Z 2500/2524 00000KT P6SM SCT050
     FM250400 05004KT 5SM BR SCT250
     FM250800 00000KT 2SM BR FEW030 SCT250
     FM251400 08004KT P6SM SCT040=

USA.gov is the U.S. government's official web portal to all federal, state and local government web resources and services.